createdAt,value
2023-02-03T00:01:45.877Z,10.40
2023-02-03T00:08:48.504Z,12.90
2023-02-03T00:15:42.296Z,17.30
2023-02-03T00:22:29.565Z,16.30
2023-02-03T00:29:14.768Z,16.10
2023-02-03T00:35:46.519Z,11.10
2023-02-03T00:42:47.931Z,14.90
2023-02-03T00:49:50.760Z,13.60
2023-02-03T00:56:54.707Z,20.00
2023-02-03T01:03:49.343Z,22.90
2023-02-03T01:10:19.751Z,15.60
2023-02-03T01:17:16.908Z,17.20
2023-02-03T01:24:00.436Z,16.50
2023-02-03T01:31:03.326Z,12.10
2023-02-03T01:37:47.815Z,16.60
2023-02-03T01:44:39.012Z,24.80
2023-02-03T01:51:31.121Z,21.40
2023-02-03T01:58:28.796Z,18.50
2023-02-03T02:11:25.780Z,13.80
2023-02-03T02:17:50.341Z,19.40
2023-02-03T02:24:38.307Z,22.40
2023-02-03T02:31:50.370Z,18.10
2023-02-03T02:39:12.283Z,21.00
2023-02-03T02:46:21.231Z,18.00
2023-02-03T02:53:30.151Z,15.20
2023-02-03T03:00:28.103Z,15.20
2023-02-03T03:07:30.214Z,16.40
2023-02-03T03:14:19.230Z,15.70
2023-02-03T03:20:36.144Z,19.90
2023-02-03T03:26:50.128Z,14.60
2023-02-03T03:33:04.852Z,14.60
2023-02-03T03:39:23.192Z,16.30
2023-02-03T03:45:37.647Z,16.50
2023-02-03T03:51:38.733Z,12.10
2023-02-03T03:57:22.162Z,17.30
2023-02-03T04:02:33.308Z,18.20
2023-02-03T04:07:56.985Z,14.30
2023-02-03T04:13:26.384Z,19.90
2023-02-03T04:18:33.775Z,21.40
2023-02-03T04:23:43.207Z,22.10
2023-02-03T04:28:47.316Z,23.70
2023-02-03T04:33:51.503Z,20.10
2023-02-03T04:38:55.869Z,28.60
2023-02-03T04:44:00.157Z,27.90
2023-02-03T04:49:09.255Z,30.70
2023-02-03T04:54:25.785Z,32.90
2023-02-03T04:59:32.485Z,34.00
2023-02-03T05:04:43.854Z,31.70
2023-02-03T05:09:48.195Z,34.00
2023-02-03T05:14:50.132Z,44.20
2023-02-03T05:19:54.333Z,42.90
2023-02-03T05:25:03.367Z,36.10
2023-02-03T05:30:43.707Z,32.40
2023-02-03T05:37:30.856Z,41.70
2023-02-03T05:44:32.806Z,35.10
2023-02-03T05:50:05.476Z,35.70
2023-02-03T05:55:09.532Z,39.00
2023-02-03T06:00:17.296Z,28.50
2023-02-03T06:05:19.455Z,37.10
2023-02-03T06:10:21.898Z,32.50
2023-02-03T06:15:23.635Z,31.00
2023-02-03T06:20:28.107Z,36.60
2023-02-03T06:25:35.102Z,38.50
2023-02-03T06:31:36.582Z,33.00
2023-02-03T06:37:58.018Z,32.30
2023-02-03T06:43:32.873Z,35.60
2023-02-03T06:48:34.705Z,25.90
2023-02-03T06:53:38.641Z,32.90
2023-02-03T06:58:40.316Z,28.70
2023-02-03T07:03:46.415Z,30.80
2023-02-03T07:08:48.041Z,35.00
2023-02-03T07:13:53.152Z,30.70
2023-02-03T07:18:55.134Z,28.20
2023-02-03T07:23:57.160Z,28.90
2023-02-03T07:29:01.323Z,32.50
2023-02-03T07:34:05.808Z,27.30
2023-02-03T07:39:12.958Z,25.00
2023-02-03T07:44:14.583Z,29.30
2023-02-03T07:49:16.355Z,27.20
2023-02-03T07:54:18.026Z,26.00
2023-02-03T07:59:30.939Z,27.50
2023-02-03T08:04:32.801Z,33.10
2023-02-03T08:09:36.646Z,30.20
2023-02-03T08:14:40.798Z,28.00
2023-02-03T08:20:08.642Z,31.30
2023-02-03T08:25:23.374Z,30.60
2023-02-03T08:30:26.024Z,24.90
2023-02-03T08:35:32.623Z,31.00
2023-02-03T08:40:36.628Z,31.70
2023-02-03T08:45:40.769Z,31.80
2023-02-03T08:50:43.894Z,33.40
2023-02-03T08:55:46.016Z,31.20
2023-02-03T09:00:49.358Z,36.40
2023-02-03T09:06:00.716Z,35.70
2023-02-03T09:11:07.907Z,34.30
2023-02-03T09:16:13.298Z,31.00
2023-02-03T09:21:33.836Z,26.60
2023-02-03T09:26:48.745Z,29.00
2023-02-03T09:31:52.933Z,27.60
2023-02-03T09:37:20.035Z,24.50
2023-02-03T09:42:50.619Z,24.50
2023-02-03T09:47:55.002Z,33.30
2023-02-03T09:53:12.185Z,26.30
2023-02-03T09:58:22.622Z,27.50
2023-02-03T10:04:01.603Z,34.10
2023-02-03T10:09:37.006Z,30.20
2023-02-03T10:15:44.970Z,29.40
2023-02-03T10:22:02.382Z,26.20
2023-02-03T10:28:28.053Z,27.80
2023-02-03T10:34:47.149Z,27.70
2023-02-03T10:41:19.571Z,24.60
2023-02-03T10:48:16.890Z,22.30
2023-02-03T10:55:02.158Z,24.10
2023-02-03T11:01:51.219Z,22.20
2023-02-03T11:08:20.477Z,24.00
2023-02-03T11:15:12.833Z,21.70
2023-02-03T11:22:19.619Z,20.80
2023-02-03T11:29:23.920Z,18.90
2023-02-03T11:36:19.463Z,19.00
2023-02-03T11:43:22.220Z,20.30
2023-02-03T11:50:45.941Z,21.90
2023-02-03T11:58:17.433Z,22.40
2023-02-03T12:05:26.018Z,20.20
2023-02-03T12:12:48.540Z,19.90
2023-02-03T12:20:09.693Z,23.70
2023-02-03T12:27:19.047Z,17.80
2023-02-03T12:34:24.547Z,16.70
2023-02-03T12:41:34.932Z,17.20
2023-02-03T12:48:50.532Z,18.40
2023-02-03T12:56:07.296Z,21.80
2023-02-03T13:03:17.653Z,18.30
2023-02-03T13:10:28.907Z,24.90
2023-02-03T13:17:27.233Z,18.70
2023-02-03T13:24:21.354Z,19.80
2023-02-03T13:31:27.073Z,21.90
2023-02-03T13:38:18.619Z,22.60
2023-02-03T13:45:26.455Z,26.10
2023-02-03T13:52:49.167Z,19.70
2023-02-03T14:00:11.971Z,24.20
2023-02-03T14:05:56.997Z,24.20
2023-02-03T14:12:57.604Z,19.90
2023-02-03T14:18:57.253Z,23.40
2023-02-03T14:25:16.799Z,25.10
2023-02-03T14:32:23.864Z,17.50
2023-02-03T14:39:26.979Z,24.20
2023-02-03T14:46:58.120Z,24.10
2023-02-03T14:54:07.214Z,22.90
2023-02-03T15:01:33.072Z,28.50
2023-02-03T15:08:43.694Z,29.30
2023-02-03T15:15:52.795Z,21.40
2023-02-03T15:23:06.505Z,17.90
2023-02-03T15:30:03.104Z,16.30
2023-02-03T15:37:10.671Z,17.50
2023-02-03T15:44:02.987Z,17.80
2023-02-03T15:51:05.206Z,16.80
2023-02-03T15:58:04.758Z,11.10
2023-02-03T16:05:07.873Z,9.40
2023-02-03T16:12:25.146Z,13.90
2023-02-03T16:26:00.907Z,12.70
2023-02-03T16:32:54.394Z,18.50
2023-02-03T16:39:55.959Z,11.40
2023-02-03T16:46:29.618Z,14.10
2023-02-03T16:53:02.666Z,17.20
2023-02-03T16:59:44.128Z,17.30
2023-02-03T17:06:19.434Z,13.90
2023-02-03T17:13:21.478Z,14.60
2023-02-03T17:20:05.443Z,14.40
2023-02-03T17:26:52.021Z,18.10
2023-02-03T17:33:44.331Z,16.30
2023-02-03T17:54:28.503Z,20.60
2023-02-03T18:01:26.128Z,23.60
2023-02-03T18:08:50.195Z,21.00
2023-02-03T18:15:48.150Z,27.00
2023-02-03T18:23:10.854Z,26.70
2023-02-03T18:30:14.480Z,22.00
2023-02-03T18:44:40.970Z,21.40
2023-02-03T18:52:03.839Z,27.50
2023-02-03T18:59:26.726Z,20.90
2023-02-03T19:06:51.671Z,19.00
2023-02-03T19:14:14.567Z,20.90
2023-02-03T19:21:24.442Z,34.00
2023-02-03T19:28:31.426Z,28.40
2023-02-03T19:35:52.454Z,28.60
2023-02-03T19:42:48.078Z,30.10
2023-02-03T19:49:50.639Z,20.50
2023-02-03T19:57:00.289Z,16.70
2023-02-03T20:03:44.467Z,25.80
2023-02-03T20:10:27.068Z,25.80
2023-02-03T20:17:26.668Z,23.80
2023-02-03T20:24:29.602Z,23.60
2023-02-03T20:31:37.286Z,38.40
2023-02-03T20:38:13.024Z,27.10
2023-02-03T20:45:17.118Z,27.60
2023-02-03T20:52:20.505Z,30.20
2023-02-03T20:59:45.451Z,22.00
2023-02-03T21:06:43.755Z,25.30
2023-02-03T21:14:14.837Z,20.40
2023-02-03T21:21:13.419Z,21.80
2023-02-03T21:28:08.987Z,20.80
2023-02-03T21:35:12.777Z,27.10
2023-02-03T21:42:19.043Z,27.40
2023-02-03T21:49:23.788Z,20.40
2023-02-03T21:56:27.095Z,19.90
2023-02-03T22:03:25.305Z,18.60
2023-02-03T22:10:15.759Z,17.30
2023-02-03T22:17:14.052Z,22.40
2023-02-03T22:24:06.654Z,17.90
2023-02-03T22:31:11.988Z,19.60
2023-02-03T22:38:24.191Z,16.90
2023-02-03T22:45:27.196Z,19.10
2023-02-03T22:52:28.731Z,17.20
2023-02-03T22:59:24.601Z,12.60
2023-02-03T23:06:12.520Z,11.20
2023-02-03T23:13:06.938Z,8.40
2023-02-03T23:19:53.159Z,9.60
2023-02-03T23:26:56.100Z,10.80
2023-02-03T23:33:59.078Z,7.80
2023-02-03T23:40:55.856Z,7.90
2023-02-03T23:48:00.465Z,7.50
2023-02-03T23:54:54.211Z,12.10
